Time;durP1;ratioP1;P1;durP2;ratioP2;P2;SDS_P1;SDS_P2;PMS_P1;PMS_P2;Temp;Humidity;BMP_temperature;BMP_pressure;BME280_temperature;BME280_humidity;BME280_pressure;Samples;Min_cycle;Max_cycle;Signal;HPM_P1;HPM_P2
2023/08/17 00:02:12;;;;;;;4.35;2.72;;;18.90;99.90;;;;;;5091246;28;20036;-59
2023/08/17 00:04:38;;;;;;;6.75;3.20;;;18.90;99.90;;;;;;5111170;28;20107;-60
2023/08/17 00:07:04;;;;;;;7.70;2.85;;;18.90;99.90;;;;;;5091876;28;20101;-60
2023/08/17 00:09:30;;;;;;;6.97;3.47;;;18.80;99.90;;;;;;5110919;28;20020;-59
2023/08/17 00:11:55;;;;;;;6.18;3.13;;;18.80;99.90;;;;;;5091837;28;20145;-60
2023/08/17 00:14:21;;;;;;;5.85;2.67;;;18.70;99.90;;;;;;5097624;28;20392;-59
2023/08/17 00:16:48;;;;;;;4.43;2.60;;;18.80;99.90;;;;;;5091099;28;20032;-60
2023/08/17 00:19:14;;;;;;;7.20;2.55;;;18.70;99.90;;;;;;5110786;28;20449;-60
2023/08/17 00:21:39;;;;;;;4.50;2.72;;;18.70;99.90;;;;;;5091453;28;20032;-60
2023/08/17 00:24:05;;;;;;;4.13;2.55;;;18.70;99.90;;;;;;5110761;28;20043;-59
2023/08/17 00:26:30;;;;;;;7.00;2.65;;;18.60;99.90;;;;;;5069009;28;20036;-60
2023/08/17 00:28:56;;;;;;;5.00;2.60;;;18.70;99.90;;;;;;5108658;28;20035;-59
2023/08/17 00:31:21;;;;;;;4.45;2.55;;;18.60;99.90;;;;;;5091273;28;20044;-59
2023/08/17 00:33:47;;;;;;;6.05;2.63;;;18.60;99.90;;;;;;5110455;28;20020;-60
2023/08/17 00:36:12;;;;;;;5.85;2.47;;;18.60;99.90;;;;;;5091253;28;20477;-59
2023/08/17 00:38:38;;;;;;;3.70;2.53;;;18.60;99.90;;;;;;5110384;28;20055;-59
2023/08/17 00:41:03;;;;;;;5.10;2.75;;;18.50;99.90;;;;;;5089916;28;20035;-60
2023/08/17 00:43:29;;;;;;;7.85;2.67;;;18.50;99.90;;;;;;5110066;28;20024;-59
2023/08/17 00:45:55;;;;;;;6.65;2.70;;;18.50;99.90;;;;;;5091060;28;20048;-60
2023/08/17 00:48:20;;;;;;;4.65;2.58;;;18.50;99.90;;;;;;5110088;28;20035;-59
2023/08/17 00:50:48;;;;;;;3.90;2.40;;;18.40;99.90;;;;;;5090903;28;20491;-59
2023/08/17 00:53:16;;;;;;;3.65;2.60;;;18.40;99.90;;;;;;5110455;28;20023;-59
2023/08/17 00:55:42;;;;;;;6.80;3.25;;;18.40;99.90;;;;;;5075493;28;20037;-59
2023/08/17 00:58:08;;;;;;;4.05;2.75;;;18.40;99.90;;;;;;5109419;28;20023;-59
2023/08/17 01:00:34;;;;;;;6.03;3.20;;;18.30;99.90;;;;;;5090641;28;20028;-60
2023/08/17 01:02:59;;;;;;;5.65;2.80;;;18.30;99.90;;;;;;5109917;28;20114;-60
2023/08/17 01:05:25;;;;;;;4.35;2.60;;;18.30;99.90;;;;;;5090551;28;20077;-60
2023/08/17 01:07:51;;;;;;;6.53;2.95;;;18.30;99.90;;;;;;5109662;28;20043;-59
2023/08/17 01:10:16;;;;;;;5.63;2.83;;;18.20;99.90;;;;;;5090636;28;20036;-61
2023/08/17 01:13:09;;;;;;;3.47;2.85;;;18.30;99.90;;;;;;5109268;28;20039;-60
2023/08/17 01:15:45;;;;;;;4.68;2.25;;;18.20;99.90;;;;;;5063674;28;20028;-59
2023/08/17 01:18:15;;;;;;;6.20;2.60;;;18.20;99.90;;;;;;5068380;28;20492;-59
2023/08/17 01:20:41;;;;;;;5.28;2.90;;;18.20;99.90;;;;;;5071950;28;20032;-60
2023/08/17 01:23:07;;;;;;;5.65;2.72;;;18.10;99.90;;;;;;5089427;28;20053;-59
2023/08/17 01:25:39;;;;;;;2.83;2.33;;;18.10;99.90;;;;;;5089184;28;20077;-59
2023/08/17 01:28:05;;;;;;;5.43;2.97;;;18.10;99.90;;;;;;5069509;28;20328;-60
2023/08/17 01:30:38;;;;;;;6.07;2.60;;;18.10;99.90;;;;;;5101979;28;20123;-59
2023/08/17 01:33:44;;;;;;;6.05;2.78;;;18.10;99.90;;;;;;5089668;28;20102;-60
2023/08/17 01:36:37;;;;;;;6.32;2.88;;;18.10;99.90;;;;;;5087976;28;20052;-59
2023/08/17 01:39:04;;;;;;;5.45;3.17;;;18.10;99.90;;;;;;5069400;28;20017;-60
2023/08/17 01:41:30;;;;;;;7.50;3.55;;;18.00;99.90;;;;;;5108852;28;20092;-59
2023/08/17 01:43:57;;;;;;;7.13;3.28;;;18.00;99.90;;;;;;5090025;28;20450;-60
2023/08/17 01:46:22;;;;;;;7.70;3.33;;;18.00;99.90;;;;;;5109119;28;20024;-59
2023/08/17 01:48:48;;;;;;;4.38;2.85;;;18.00;99.90;;;;;;5089870;28;20031;-60
2023/08/17 01:51:19;;;;;;;6.45;3.28;;;18.00;99.90;;;;;;5087896;28;20059;-60
2023/08/17 01:53:45;;;;;;;5.13;2.53;;;17.90;99.90;;;;;;5109361;28;20126;-60
2023/08/17 01:56:11;;;;;;;4.65;2.78;;;18.00;99.90;;;;;;5089761;28;20043;-60
2023/08/17 01:58:36;;;;;;;5.55;2.83;;;18.00;99.90;;;;;;5108853;28;20487;-60
2023/08/17 02:01:02;;;;;;;5.47;3.10;;;17.90;99.90;;;;;;5089706;28;20032;-60
2023/08/17 02:03:28;;;;;;;3.97;2.42;;;17.90;99.90;;;;;;5108679;28;20577;-60
2023/08/17 02:05:56;;;;;;;7.22;3.55;;;17.90;99.90;;;;;;5089805;28;20020;-60
2023/08/17 02:08:21;;;;;;;6.63;3.22;;;17.90;99.90;;;;;;5108989;28;20546;-59
2023/08/17 02:10:47;;;;;;;8.35;3.22;;;17.80;99.90;;;;;;5089552;28;20043;-60
2023/08/17 02:13:12;;;;;;;5.18;3.15;;;17.80;99.90;;;;;;5108774;28;20035;-61
2023/08/17 02:15:39;;;;;;;15.57;3.25;;;17.80;99.90;;;;;;5083616;28;20028;-60
2023/08/17 02:18:04;;;;;;;4.57;2.90;;;17.80;99.90;;;;;;5108775;28;20131;-60
2023/08/17 02:20:30;;;;;;;5.45;2.55;;;17.80;99.90;;;;;;5083917;28;20127;-60
2023/08/17 02:22:55;;;;;;;4.93;2.67;;;17.80;99.90;;;;;;5069082;28;20032;-60
2023/08/17 02:25:21;;;;;;;5.72;3.28;;;17.70;99.90;;;;;;5111904;28;20043;-59
2023/08/17 02:27:46;;;;;;;5.88;2.63;;;17.70;99.90;;;;;;5093585;28;20436;-60
2023/08/17 02:30:13;;;;;;;3.38;2.28;;;17.70;99.90;;;;;;5108921;28;20036;-61
2023/08/17 02:32:38;;;;;;;3.17;2.22;;;17.70;99.90;;;;;;5093301;28;20035;-61
2023/08/17 02:35:04;;;;;;;5.85;3.08;;;17.70;99.90;;;;;;5112576;28;20036;-60
2023/08/17 02:37:30;;;;;;;5.22;3.30;;;17.60;99.90;;;;;;5093477;28;20450;-60
2023/08/17 02:39:55;;;;;;;3.65;2.80;;;17.60;99.90;;;;;;5112847;28;20475;-60
2023/08/17 02:42:21;;;;;;;6.18;3.40;;;17.60;99.90;;;;;;5093443;28;20710;-59
2023/08/17 02:44:46;;;;;;;4.80;3.00;;;17.60;99.90;;;;;;5112483;28;20053;-60
2023/08/17 02:47:12;;;;;;;4.53;2.88;;;17.50;99.90;;;;;;5093336;28;20435;-60
2023/08/17 02:49:37;;;;;;;5.65;2.45;;;17.50;99.90;;;;;;5112491;28;20088;-60
2023/08/17 02:52:03;;;;;;;3.92;2.53;;;17.50;99.90;;;;;;5075142;28;20025;-60
2023/08/17 02:54:29;;;;;;;6.60;3.15;;;17.50;99.90;;;;;;5111673;28;20056;-60
2023/08/17 02:56:54;;;;;;;7.15;2.63;;;17.50;99.90;;;;;;5093232;28;20040;-59
2023/08/17 02:59:19;;;;;;;6.32;3.28;;;17.50;99.90;;;;;;5112260;28;20032;-59
2023/08/17 03:01:45;;;;;;;8.05;2.97;;;17.50;99.90;;;;;;5093111;28;20050;-59
2023/08/17 03:04:11;;;;;;;4.38;3.00;;;17.50;99.90;;;;;;5112153;28;20100;-60
2023/08/17 03:06:36;;;;;;;5.97;2.95;;;17.50;99.90;;;;;;5093058;28;20032;-60
2023/08/17 03:09:02;;;;;;;5.55;2.60;;;17.50;99.90;;;;;;5112290;28;20081;-60
2023/08/17 03:11:27;;;;;;;5.63;3.15;;;17.50;99.90;;;;;;5092825;28;20036;-60
2023/08/17 03:13:59;;;;;;;4.45;2.45;;;17.50;99.90;;;;;;5103422;28;20039;-59
2023/08/17 03:16:25;;;;;;;7.07;2.83;;;17.50;99.90;;;;;;5092334;28;20063;-60
2023/08/17 03:18:51;;;;;;;7.25;3.00;;;17.50;99.90;;;;;;5111901;28;20035;-59
2023/08/17 03:21:17;;;;;;;4.93;2.30;;;17.50;99.90;;;;;;5080714;28;20044;-59
2023/08/17 03:23:43;;;;;;;4.30;2.28;;;17.50;99.90;;;;;;5111663;28;20019;-60
2023/08/17 03:26:08;;;;;;;5.13;2.65;;;17.50;99.90;;;;;;5092571;28;20534;-60
2023/08/17 03:28:33;;;;;;;5.75;2.90;;;17.50;99.90;;;;;;5111822;28;20059;-60
2023/08/17 03:30:59;;;;;;;3.15;2.22;;;17.50;99.90;;;;;;5102539;28;20043;-60
2023/08/17 03:33:24;;;;;;;5.10;2.78;;;17.50;99.90;;;;;;5092427;28;20101;-60
2023/08/17 03:35:50;;;;;;;4.50;2.47;;;17.50;99.90;;;;;;5111144;28;20028;-60
2023/08/17 03:38:15;;;;;;;3.38;2.30;;;17.50;99.90;;;;;;5092406;28;20108;-58
2023/08/17 03:40:41;;;;;;;8.20;2.67;;;17.50;99.90;;;;;;5111508;28;20031;-60
2023/08/17 03:43:06;;;;;;;5.07;2.40;;;17.50;99.90;;;;;;5092228;28;20036;-59
2023/08/17 03:45:32;;;;;;;5.07;2.50;;;17.50;99.90;;;;;;5111388;28;20028;-59
2023/08/17 03:47:58;;;;;;;3.08;2.38;;;17.60;99.90;;;;;;5092256;28;20050;-60
2023/08/17 03:50:27;;;;;;;4.93;2.72;;;17.60;99.90;;;;;;5103967;28;20616;-59
2023/08/17 03:52:52;;;;;;;3.88;2.47;;;17.60;99.90;;;;;;5071491;28;20119;-60
2023/08/17 03:55:18;;;;;;;7.18;2.67;;;17.70;99.90;;;;;;5110622;28;20038;-60
2023/08/17 03:57:44;;;;;;;3.13;1.98;;;17.70;99.90;;;;;;5092192;28;20028;-60
2023/08/17 04:00:10;;;;;;;3.75;2.17;;;17.70;99.90;;;;;;5111033;28;20433;-59
2023/08/17 04:02:35;;;;;;;2.58;2.03;;;17.80;99.90;;;;;;5091786;28;20024;-60
2023/08/17 04:05:01;;;;;;;4.57;2.00;;;17.80;99.90;;;;;;5111115;28;20609;-60
2023/08/17 04:07:26;;;;;;;2.25;2.03;;;17.80;99.90;;;;;;5091744;28;20123;-60
2023/08/17 04:09:52;;;;;;;4.75;2.33;;;17.80;99.90;;;;;;5111078;28;20036;-60
2023/08/17 04:12:18;;;;;;;5.05;2.78;;;17.90;99.80;;;;;;5091825;28;20119;-60
2023/08/17 04:14:44;;;;;;;4.15;2.08;;;17.90;99.60;;;;;;5091977;28;20034;-60
2023/08/17 04:17:09;;;;;;;6.68;2.08;;;17.90;99.30;;;;;;5088271;27;20116;-61
2023/08/17 04:19:35;;;;;;;3.47;2.15;;;18.00;98.90;;;;;;5074881;28;20036;-60
2023/08/17 04:22:00;;;;;;;5.07;2.10;;;18.00;98.60;;;;;;5110236;28;20030;-60
2023/08/17 04:24:26;;;;;;;5.75;2.50;;;18.00;98.20;;;;;;5090389;28;20086;-60
2023/08/17 04:26:51;;;;;;;5.43;2.13;;;18.20;97.60;;;;;;5110698;28;20039;-60
2023/08/17 04:29:17;;;;;;;3.97;2.00;;;18.20;97.70;;;;;;5091620;28;20503;-59
2023/08/17 04:31:42;;;;;;;4.30;1.98;;;18.30;97.30;;;;;;5110558;28;20044;-59
2023/08/17 04:34:08;;;;;;;5.35;2.38;;;18.30;96.70;;;;;;5091615;28;20031;-60
2023/08/17 04:36:33;;;;;;;2.55;2.25;;;18.40;95.60;;;;;;5110614;28;20411;-60
2023/08/17 04:38:58;;;;;;;3.63;2.13;;;18.40;95.70;;;;;;5091523;28;20028;-59
2023/08/17 04:41:24;;;;;;;7.75;2.22;;;18.50;95.20;;;;;;5110323;28;20039;-60
2023/08/17 04:43:50;;;;;;;5.78;2.53;;;18.50;94.60;;;;;;5091279;28;20101;-59
2023/08/17 04:46:15;;;;;;;4.60;1.98;;;18.50;94.50;;;;;;5109456;28;20535;-59
2023/08/17 04:48:41;;;;;;;5.43;2.30;;;18.60;94.30;;;;;;5082267;28;20027;-60
2023/08/17 04:51:06;;;;;;;3.88;1.75;;;18.70;94.40;;;;;;5070539;28;20029;-61
2023/08/17 04:53:32;;;;;;;5.93;2.45;;;18.80;93.50;;;;;;5108064;28;20028;-60
2023/08/17 04:55:59;;;;;;;7.65;2.15;;;18.80;93.70;;;;;;5091110;28;20032;-61
2023/08/17 04:58:24;;;;;;;6.85;2.08;;;18.90;92.90;;;;;;5110298;28;20035;-59
2023/08/17 05:00:50;;;;;;;2.55;1.70;;;19.10;92.70;;;;;;5090829;28;20085;-54
2023/08/17 05:03:15;;;;;;;3.05;1.42;;;19.60;92.00;;;;;;5110083;28;20047;-48
2023/08/17 05:05:41;;;;;;;2.78;1.85;;;19.90;91.30;;;;;;5088565;28;20030;-55
2023/08/17 05:08:06;;;;;;;1.90;1.70;;;20.10;91.10;;;;;;5070210;28;20029;-55
2023/08/17 05:10:32;;;;;;;3.10;1.77;;;20.10;90.30;;;;;;5108961;28;20406;-55
2023/08/17 05:12:57;;;;;;;4.80;2.00;;;20.10;87.50;;;;;;5090784;28;20080;-56
2023/08/17 05:15:23;;;;;;;2.50;1.98;;;20.40;86.90;;;;;;5103453;28;20036;-57
2023/08/17 05:17:48;;;;;;;4.10;1.77;;;20.50;84.10;;;;;;5088110;28;20027;-54
2023/08/17 05:20:14;;;;;;;5.18;1.83;;;20.70;85.20;;;;;;5089290;28;20089;-54
2023/08/17 05:22:40;;;;;;;2.10;1.77;;;20.70;82.40;;;;;;5107996;28;20291;-56
2023/08/17 05:25:06;;;;;;;1.92;1.70;;;20.60;81.20;;;;;;5089676;28;20039;-56
2023/08/17 05:27:31;;;;;;;3.40;1.92;;;20.60;84.80;;;;;;5108581;28;20409;-55
2023/08/17 05:29:57;;;;;;;3.70;1.92;;;20.40;83.20;;;;;;5090798;28;20384;-52
2023/08/17 05:32:22;;;;;;;4.30;1.67;;;20.20;83.20;;;;;;5109533;28;20057;-54
2023/08/17 05:34:48;;;;;;;2.15;1.83;;;20.60;83.90;;;;;;5089283;28;20046;-55
2023/08/17 05:37:15;;;;;;;4.60;1.75;;;21.40;78.10;;;;;;5108512;28;20028;-54
2023/08/17 05:39:40;;;;;;;6.32;1.75;;;22.00;79.00;;;;;;5088959;28;20031;-56
2023/08/17 05:42:07;;;;;;;3.33;1.73;;;22.60;75.30;;;;;;5108368;28;20024;-55
2023/08/17 05:44:32;;;;;;;2.13;1.70;;;22.80;72.20;;;;;;5089279;28;20044;-56
2023/08/17 05:46:58;;;;;;;4.18;1.67;;;23.00;71.10;;;;;;5108332;28;20414;-56
2023/08/17 05:49:23;;;;;;;3.08;1.70;;;22.50;72.60;;;;;;5087216;28;20032;-55
2023/08/17 05:51:49;;;;;;;5.00;2.05;;;22.40;70.90;;;;;;5108580;28;20376;-55
2023/08/17 05:54:14;;;;;;;1.95;1.60;;;22.10;73.50;;;;;;5087672;28;20059;-55
2023/08/17 05:56:44;;;;;;;3.50;1.50;;;22.10;73.50;;;;;;5108282;28;20056;-55
2023/08/17 05:59:10;;;;;;;2.65;1.45;;;22.40;71.90;;;;;;5088556;28;20106;-56
2023/08/17 06:01:36;;;;;;;2.60;1.52;;;22.70;73.20;;;;;;5108297;28;20529;-56
2023/08/17 06:04:01;;;;;;;4.32;2.10;;;22.70;69.90;;;;;;5091533;28;20208;-54
2023/08/17 06:06:27;;;;;;;3.40;1.80;;;22.30;73.00;;;;;;5108645;28;20058;-55
2023/08/17 06:08:52;;;;;;;2.67;1.48;;;22.10;74.00;;;;;;5089466;28;20032;-55
2023/08/17 06:11:18;;;;;;;4.43;1.63;;;22.20;74.40;;;;;;5108707;28;20055;-55
2023/08/17 06:13:43;;;;;;;4.47;1.63;;;22.00;74.10;;;;;;5090540;28;20043;-55
2023/08/17 06:16:10;;;;;;;3.88;1.80;;;22.10;73.70;;;;;;5103197;28;20438;-55
2023/08/17 06:18:36;;;;;;;2.97;1.63;;;22.10;73.80;;;;;;5089293;28;20031;-56
2023/08/17 06:21:01;;;;;;;2.92;1.50;;;22.40;71.80;;;;;;5108608;28;20032;-56
2023/08/17 06:23:27;;;;;;;4.15;1.73;;;23.00;71.50;;;;;;5089557;28;20024;-56
2023/08/17 06:25:57;;;;;;;3.70;2.05;;;24.20;66.80;;;;;;5108591;28;20050;-55
2023/08/17 06:28:22;;;;;;;2.30;1.30;;;25.20;66.20;;;;;;5068809;28;20052;-54
2023/08/17 06:30:53;;;;;;;2.28;1.42;;;26.20;62.00;;;;;;5100472;28;20044;-56
2023/08/17 06:33:18;;;;;;;2.65;1.38;;;27.40;59.80;;;;;;5068614;28;20546;-54
2023/08/17 06:35:44;;;;;;;2.22;1.30;;;28.70;58.60;;;;;;5107950;28;20069;-55
2023/08/17 06:38:09;;;;;;;2.03;1.13;;;29.50;55.00;;;;;;5089387;28;20121;-56
2023/08/17 06:40:35;;;;;;;2.13;1.23;;;30.30;53.00;;;;;;5108320;28;20061;-53
2023/08/17 06:43:00;;;;;;;2.63;1.52;;;30.50;50.00;;;;;;5089323;28;20480;-57
2023/08/17 06:45:26;;;;;;;3.75;1.40;;;29.50;40.70;;;;;;5108370;28;20046;-57
2023/08/17 06:47:51;;;;;;;5.68;2.33;;;28.20;47.50;;;;;;5089409;28;20031;-56
2023/08/17 06:50:17;;;;;;;2.50;1.40;;;26.90;49.80;;;;;;5108199;28;20085;-56
2023/08/17 06:52:43;;;;;;;3.95;1.90;;;26.10;52.60;;;;;;5089107;28;20028;-55
2023/08/17 06:55:09;;;;;;;4.35;1.75;;;25.60;54.40;;;;;;5108192;28;20032;-56
2023/08/17 06:57:35;;;;;;;2.10;1.48;;;24.90;55.40;;;;;;5088952;28;20077;-56
2023/08/17 07:00:00;;;;;;;2.50;1.48;;;24.40;56.90;;;;;;5098913;28;20519;-55
2023/08/17 07:02:26;;;;;;;3.42;1.58;;;24.10;58.60;;;;;;5088635;28;20101;-56
2023/08/17 07:04:51;;;;;;;1.92;1.45;;;24.30;59.10;;;;;;5108254;28;20039;-58
2023/08/17 07:07:17;;;;;;;2.45;1.25;;;25.00;57.70;;;;;;5087801;28;20052;-55
2023/08/17 07:09:42;;;;;;;2.40;1.85;;;25.80;56.50;;;;;;5109071;28;20499;-56
2023/08/17 07:12:08;;;;;;;2.95;1.70;;;26.20;52.90;;;;;;5092853;28;20032;-56
2023/08/17 07:14:33;;;;;;;2.67;1.60;;;26.70;51.30;;;;;;5095753;28;20411;-56
2023/08/17 07:16:59;;;;;;;2.75;1.88;;;27.70;49.00;;;;;;5111826;28;20069;-56
2023/08/17 07:19:24;;;;;;;4.57;1.90;;;27.90;50.20;;;;;;5092540;28;20036;-56
2023/08/17 07:21:50;;;;;;;3.60;1.50;;;27.30;49.60;;;;;;5111884;28;20032;-56
2023/08/17 07:24:16;;;;;;;2.33;1.70;;;26.80;48.00;;;;;;5092685;28;20036;-56
2023/08/17 07:26:42;;;;;;;3.53;1.77;;;26.70;51.30;;;;;;5111736;28;20115;-54
2023/08/17 07:29:07;;;;;;;2.67;1.70;;;26.00;50.90;;;;;;5092535;28;20035;-56
2023/08/17 07:31:33;;;;;;;3.78;1.65;;;26.50;51.20;;;;;;5089920;28;20454;-58
2023/08/17 07:33:59;;;;;;;2.70;1.50;;;27.40;49.20;;;;;;5111566;28;20042;-55
2023/08/17 07:36:25;;;;;;;2.97;1.60;;;27.80;46.00;;;;;;5092327;28;20024;-53
2023/08/17 07:38:50;;;;;;;2.78;1.40;;;27.30;47.30;;;;;;5111542;28;20084;-56
2023/08/17 07:41:16;;;;;;;5.07;1.23;;;27.00;49.30;;;;;;5092241;28;20036;-55
2023/08/17 07:43:41;;;;;;;1.67;1.20;;;26.90;50.10;;;;;;5111455;28;20506;-56
2023/08/17 07:46:07;;;;;;;4.55;1.48;;;26.60;50.90;;;;;;5092204;28;20039;-56
2023/08/17 07:48:33;;;;;;;1.50;1.27;;;26.60;50.90;;;;;;5111148;28;20031;-55
2023/08/17 07:50:59;;;;;;;4.00;1.77;;;26.50;50.50;;;;;;5092092;28;20020;-55
2023/08/17 07:53:24;;;;;;;2.80;1.40;;;26.00;51.70;;;;;;5111217;28;20111;-55
2023/08/17 07:55:50;;;;;;;2.58;1.80;;;26.10;52.50;;;;;;5091956;28;20081;-56
2023/08/17 07:58:15;;;;;;;3.28;1.55;;;25.90;52.50;;;;;;5111038;28;20031;-55
2023/08/17 08:00:41;;;;;;;2.17;1.50;;;26.00;52.50;;;;;;5089950;28;20028;-55
2023/08/17 08:03:06;;;;;;;2.05;1.30;;;25.70;53.20;;;;;;5110908;28;20118;-55
2023/08/17 08:05:32;;;;;;;3.75;1.75;;;25.70;53.10;;;;;;5091672;28;20035;-55
2023/08/17 08:07:57;;;;;;;3.30;1.90;;;25.50;54.20;;;;;;5110993;28;20028;-56
2023/08/17 08:10:23;;;;;;;6.20;2.00;;;25.30;54.80;;;;;;5091836;28;20028;-54
2023/08/17 08:12:48;;;;;;;3.70;2.20;;;24.90;55.50;;;;;;5110926;28;20591;-56
2023/08/17 08:15:14;;;;;;;5.07;1.73;;;24.40;57.30;;;;;;5084334;28;20028;-55
2023/08/17 08:17:40;;;;;;;3.00;1.98;;;23.80;59.50;;;;;;5110729;28;20068;-56
2023/08/17 08:20:06;;;;;;;5.70;2.08;;;23.80;61.30;;;;;;5091380;28;20495;-56
2023/08/17 08:22:32;;;;;;;2.53;2.10;;;23.80;61.00;;;;;;5109445;28;20035;-54
2023/08/17 08:24:58;;;;;;;4.13;1.90;;;23.90;61.00;;;;;;5091491;28;20059;-54
2023/08/17 08:27:24;;;;;;;5.78;1.85;;;24.10;62.00;;;;;;5110577;28;20032;-53
2023/08/17 08:29:50;;;;;;;3.28;1.98;;;23.90;62.20;;;;;;5089212;28;20023;-55
2023/08/17 08:32:15;;;;;;;7.25;2.60;;;24.00;62.80;;;;;;5090911;28;20103;-56
2023/08/17 08:34:41;;;;;;;3.45;1.90;;;23.90;63.60;;;;;;5110344;28;20076;-54
2023/08/17 08:37:06;;;;;;;3.60;2.10;;;24.00;63.80;;;;;;5091209;28;20032;-55
2023/08/17 08:39:32;;;;;;;2.47;1.75;;;24.10;63.10;;;;;;5110101;28;20028;-56
2023/08/17 08:41:58;;;;;;;3.25;2.15;;;24.30;62.60;;;;;;5091334;28;20024;-55
2023/08/17 08:44:23;;;;;;;2.22;2.03;;;24.60;62.70;;;;;;5110174;28;20031;-54
2023/08/17 08:46:53;;;;;;;3.10;1.65;;;24.70;61.60;;;;;;5091016;28;20046;-56
2023/08/17 08:49:22;;;;;;;2.33;1.83;;;24.90;61.90;;;;;;5090269;28;20032;-54
2023/08/17 08:51:51;;;;;;;3.47;2.10;;;25.00;61.30;;;;;;5110530;28;20028;-55
2023/08/17 08:54:22;;;;;;;3.22;1.90;;;24.60;62.00;;;;;;5090478;28;20024;-55
2023/08/17 08:56:54;;;;;;;3.70;2.10;;;24.80;63.20;;;;;;5070229;28;20032;-55
2023/08/17 08:59:21;;;;;;;2.40;2.05;;;25.00;62.60;;;;;;5069987;28;20447;-55
2023/08/17 09:01:47;;;;;;;2.90;2.15;;;24.90;61.90;;;;;;5090416;28;20112;-56
2023/08/17 09:04:13;;;;;;;3.25;1.90;;;25.00;62.20;;;;;;5109949;28;20030;-55
2023/08/17 09:06:40;;;;;;;3.05;1.70;;;25.20;62.70;;;;;;5090730;28;20059;-55
2023/08/17 09:09:06;;;;;;;4.30;1.90;;;25.70;62.00;;;;;;5110061;28;20533;-56
2023/08/17 09:11:32;;;;;;;2.78;1.98;;;25.90;60.70;;;;;;5090630;28;20020;-56
2023/08/17 09:13:57;;;;;;;2.97;2.30;;;26.00;59.60;;;;;;5098892;28;20032;-56
2023/08/17 09:16:23;;;;;;;3.67;2.15;;;25.80;60.50;;;;;;5089958;28;20115;-56
2023/08/17 09:18:49;;;;;;;3.58;2.30;;;25.60;62.30;;;;;;5109471;28;20396;-55
2023/08/17 09:21:24;;;;;;;2.47;2.10;;;25.90;62.30;;;;;;5090304;28;20036;-56
2023/08/17 09:23:56;;;;;;;3.83;2.45;;;25.70;61.10;;;;;;5069817;28;20060;-58
2023/08/17 09:26:23;;;;;;;3.75;2.42;;;25.30;62.80;;;;;;5109039;28;20046;-56
2023/08/17 09:28:49;;;;;;;2.67;2.22;;;24.90;64.70;;;;;;5090076;28;20115;-56
2023/08/17 09:31:15;;;;;;;4.97;2.60;;;24.90;64.90;;;;;;5089779;28;20076;-55
2023/08/17 09:33:40;;;;;;;4.07;2.78;;;24.50;65.90;;;;;;5108926;28;20109;-55
2023/08/17 09:36:06;;;;;;;3.85;2.40;;;24.80;66.10;;;;;;5090131;28;20542;-56
2023/08/17 09:38:31;;;;;;;3.63;2.50;;;25.00;65.50;;;;;;5109262;28;20024;-56
2023/08/17 09:40:57;;;;;;;4.35;2.42;;;24.70;66.10;;;;;;5090036;28;20086;-55
2023/08/17 09:43:25;;;;;;;2.92;2.17;;;24.90;66.80;;;;;;5109193;28;20028;-55
2023/08/17 09:45:51;;;;;;;3.40;2.50;;;25.20;64.80;;;;;;5089751;28;20032;-53
2023/08/17 09:48:17;;;;;;;5.32;2.88;;;25.30;64.50;;;;;;5108969;28;20088;-56
2023/08/17 09:50:44;;;;;;;2.88;2.22;;;25.00;66.10;;;;;;5089744;28;20389;-56
2023/08/17 09:53:14;;;;;;;3.60;2.20;;;24.70;66.50;;;;;;5109018;28;20031;-55
2023/08/17 09:55:41;;;;;;;7.05;2.70;;;24.70;67.40;;;;;;5089665;28;20028;-53
2023/08/17 09:58:08;;;;;;;4.15;2.83;;;24.50;67.30;;;;;;5109153;28;20669;-56
2023/08/17 10:00:34;;;;;;;6.90;3.33;;;24.40;68.30;;;;;;5087787;28;20055;-55
2023/08/17 10:03:03;;;;;;;3.15;2.05;;;24.20;69.20;;;;;;5108797;28;20032;-55
2023/08/17 10:05:35;;;;;;;5.88;2.67;;;24.30;68.80;;;;;;5089126;28;20062;-55
2023/08/17 10:08:02;;;;;;;3.47;2.30;;;24.40;69.20;;;;;;5069130;28;20029;-54
2023/08/17 10:10:30;;;;;;;4.30;2.38;;;24.50;68.10;;;;;;5108555;28;20499;-55
2023/08/17 10:13:08;;;;;;;3.05;2.35;;;24.50;68.60;;;;;;5089415;28;20115;-56
2023/08/17 10:15:36;;;;;;;3.90;3.00;;;24.30;70.00;;;;;;5061687;28;20025;-56
2023/08/17 10:18:21;;;;;;;2.97;2.53;;;24.30;69.40;;;;;;5108928;28;20027;-55
2023/08/17 10:20:56;;;;;;;6.00;3.47;;;24.20;70.90;;;;;;5068904;28;20139;-55
2023/08/17 10:23:23;;;;;;;9.45;2.90;;;23.90;73.10;;;;;;5068923;28;20032;-55
2023/08/17 10:25:50;;;;;;;4.45;3.42;;;23.60;75.50;;;;;;5108488;28;20395;-56
2023/08/17 10:28:16;;;;;;;5.72;3.13;;;23.30;83.90;;;;;;5089499;28;20032;-55
2023/08/17 10:30:43;;;;;;;3.72;3.17;;;23.00;88.20;;;;;;5101290;28;20046;-55
2023/08/17 10:33:09;;;;;;;5.93;3.00;;;22.80;90.80;;;;;;5109376;28;20522;-54
2023/08/17 10:35:36;;;;;;;4.20;3.17;;;22.60;89.30;;;;;;5089375;28;20038;-55
2023/08/17 10:38:03;;;;;;;5.90;3.40;;;22.50;91.00;;;;;;5108756;28;20027;-55
2023/08/17 10:40:35;;;;;;;4.90;3.22;;;22.60;91.80;;;;;;5089041;28;20040;-55
2023/08/17 10:43:01;;;;;;;5.80;3.92;;;22.70;91.30;;;;;;5068705;28;20063;-55
2023/08/17 10:45:28;;;;;;;3.72;2.80;;;22.90;90.40;;;;;;5110102;28;20051;-54
2023/08/17 10:48:09;;;;;;;6.07;3.20;;;23.00;90.00;;;;;;5092996;28;20027;-54
2023/08/17 10:50:36;;;;;;;4.25;2.80;;;23.20;89.80;;;;;;5072706;28;20603;-55
2023/08/17 10:53:09;;;;;;;5.13;3.15;;;23.30;90.60;;;;;;5112062;28;20095;-54
2023/08/17 10:55:44;;;;;;;3.75;2.85;;;23.40;90.40;;;;;;5072505;28;20024;-54
2023/08/17 10:58:11;;;;;;;4.35;3.05;;;23.60;89.10;;;;;;5112669;28;20034;-55
2023/08/17 11:00:38;;;;;;;3.97;2.75;;;23.80;88.20;;;;;;5090985;28;20412;-55
2023/08/17 11:03:07;;;;;;;4.95;3.25;;;24.10;87.30;;;;;;5112420;28;20062;-55
2023/08/17 11:05:37;;;;;;;3.30;2.88;;;24.30;84.50;;;;;;5092691;28;20028;-58
2023/08/17 11:08:03;;;;;;;3.97;3.40;;;24.60;84.20;;;;;;5112422;28;20022;-58
2023/08/17 11:10:29;;;;;;;5.45;3.85;;;24.90;81.60;;;;;;5092776;28;20059;-58
2023/08/17 11:13:04;;;;;;;3.97;3.58;;;25.00;81.40;;;;;;5112080;28;20035;-58
2023/08/17 11:15:38;;;;;;;3.40;3.10;;;25.20;80.90;;;;;;5064850;28;20036;-58
2023/08/17 11:18:06;;;;;;;5.30;4.78;;;25.30;80.20;;;;;;5111935;28;20032;-58
2023/08/17 11:20:32;;;;;;;8.18;4.43;;;25.20;80.10;;;;;;5092224;28;20028;-57
2023/08/17 11:22:59;;;;;;;4.43;3.97;;;25.20;80.20;;;;;;5111857;28;20034;-58
2023/08/17 11:25:27;;;;;;;4.88;3.90;;;25.10;79.10;;;;;;5092687;28;20070;-55
2023/08/17 11:27:53;;;;;;;5.40;3.72;;;25.00;79.60;;;;;;5112004;28;20118;-55
2023/08/17 11:30:20;;;;;;;5.70;4.03;;;24.90;80.60;;;;;;5090380;28;20047;-54
2023/08/17 11:32:45;;;;;;;4.65;4.25;;;24.90;78.80;;;;;;5111635;28;20492;-56
2023/08/17 11:35:11;;;;;;;5.50;3.95;;;24.90;78.90;;;;;;5092443;28;20021;-55
2023/08/17 11:37:36;;;;;;;4.63;3.70;;;24.90;80.00;;;;;;5111497;28;20123;-55
2023/08/17 11:40:04;;;;;;;4.72;3.92;;;25.10;78.80;;;;;;5092286;28;20055;-56
2023/08/17 11:42:29;;;;;;;5.20;3.78;;;25.10;78.40;;;;;;5111581;28;20031;-56
2023/08/17 11:44:55;;;;;;;4.25;3.78;;;25.20;78.20;;;;;;5092377;28;20110;-56
2023/08/17 11:47:21;;;;;;;4.32;3.60;;;25.50;78.00;;;;;;5111257;28;20698;-55
2023/08/17 11:49:49;;;;;;;4.32;3.92;;;25.50;77.80;;;;;;5092254;28;20644;-55
2023/08/17 11:52:15;;;;;;;4.55;4.13;;;25.50;78.50;;;;;;5111354;28;20027;-54
2023/08/17 11:54:41;;;;;;;5.03;4.28;;;25.40;75.80;;;;;;5091908;28;20066;-55
2023/08/17 11:57:07;;;;;;;6.05;4.20;;;25.40;75.00;;;;;;5111032;28;20059;-55
2023/08/17 11:59:33;;;;;;;5.70;3.90;;;25.30;75.90;;;;;;5090021;28;20074;-55
2023/08/17 12:02:00;;;;;;;4.20;3.80;;;25.30;76.70;;;;;;5091601;28;20448;-56
2023/08/17 12:04:26;;;;;;;4.35;3.90;;;25.40;76.50;;;;;;5111065;28;20559;-57
2023/08/17 12:06:51;;;;;;;4.72;3.72;;;25.40;76.50;;;;;;5091817;28;20032;-56
2023/08/17 12:09:18;;;;;;;4.90;3.67;;;25.40;77.00;;;;;;5109527;28;20027;-55
2023/08/17 12:11:46;;;;;;;3.80;3.40;;;25.40;75.90;;;;;;5091486;28;20036;-54
2023/08/17 12:14:12;;;;;;;3.72;3.42;;;25.40;76.50;;;;;;5098207;28;20024;-56
2023/08/17 12:16:51;;;;;;;4.50;3.30;;;25.50;76.60;;;;;;5091167;28;20032;-56
2023/08/17 12:19:16;;;;;;;4.15;3.50;;;25.50;76.10;;;;;;5111199;28;20491;-56
2023/08/17 12:21:42;;;;;;;7.10;3.55;;;25.50;76.30;;;;;;5091481;28;20063;-56
2023/08/17 12:24:14;;;;;;;4.43;3.30;;;25.50;76.90;;;;;;5110802;28;20066;-53
2023/08/17 12:26:46;;;;;;;3.50;3.03;;;25.60;76.30;;;;;;5090987;28;20031;-56
2023/08/17 12:29:12;;;;;;;6.68;4.18;;;25.80;76.80;;;;;;5108233;28;20398;-55
2023/08/17 12:31:38;;;;;;;3.22;2.92;;;25.80;74.30;;;;;;5090739;28;20040;-56
2023/08/17 12:34:05;;;;;;;4.50;3.42;;;26.00;75.80;;;;;;5110136;28;20027;-56
2023/08/17 12:36:31;;;;;;;4.78;3.00;;;26.10;74.70;;;;;;5090848;28;20438;-55
2023/08/17 12:38:57;;;;;;;4.47;3.03;;;26.50;74.40;;;;;;5110262;28;20034;-56
2023/08/17 12:41:22;;;;;;;3.97;3.40;;;26.40;71.50;;;;;;5090696;28;20032;-55
2023/08/17 12:43:48;;;;;;;4.18;3.30;;;26.40;72.70;;;;;;5110024;28;20024;-56
2023/08/17 12:46:13;;;;;;;4.38;3.50;;;26.50;72.80;;;;;;5090836;28;20043;-55